createdAt,value
2022-10-25T00:01:26.174Z,5.00
2022-10-25T00:03:53.851Z,2.05
2022-10-25T00:06:21.003Z,2.35
2022-10-25T00:08:48.131Z,1.63
2022-10-25T00:11:25.681Z,2.15
2022-10-25T00:13:53.627Z,1.65
2022-10-25T00:16:22.680Z,6.65
2022-10-25T00:18:50.161Z,1.45
2022-10-25T00:21:17.263Z,2.08
2022-10-25T00:23:44.400Z,2.97
2022-10-25T00:26:12.007Z,2.22
2022-10-25T00:28:39.300Z,1.73
2022-10-25T00:31:07.919Z,1.52
2022-10-25T00:33:35.486Z,3.40
2022-10-25T00:36:09.165Z,1.75
2022-10-25T00:38:36.507Z,1.45
2022-10-25T00:41:04.030Z,1.73
2022-10-25T00:43:39.989Z,1.77
2022-10-25T00:46:25.204Z,1.10
2022-10-25T00:48:55.367Z,1.33
2022-10-25T00:51:24.919Z,2.20
2022-10-25T00:53:52.432Z,3.45
2022-10-25T00:56:38.842Z,2.63
2022-10-25T00:59:08.780Z,1.50
2022-10-25T01:01:36.255Z,1.40
2022-10-25T01:04:05.268Z,3.42
2022-10-25T01:06:34.187Z,2.05
2022-10-25T01:09:02.547Z,1.63
2022-10-25T01:11:29.698Z,2.17
2022-10-25T01:13:57.323Z,1.08
2022-10-25T01:16:32.316Z,2.53
2022-10-25T01:21:45.080Z,2.08
2022-10-25T01:24:30.879Z,1.02
2022-10-25T01:27:12.510Z,3.35
2022-10-25T01:29:51.849Z,2.05
2022-10-25T01:32:21.351Z,1.80
2022-10-25T01:34:56.888Z,2.75
2022-10-25T01:37:23.963Z,2.40
2022-10-25T01:39:57.158Z,2.22
2022-10-25T01:42:30.221Z,3.53
2022-10-25T01:45:09.243Z,1.33
2022-10-25T01:47:38.830Z,1.88
2022-10-25T01:50:08.293Z,1.23
2022-10-25T01:52:35.630Z,1.15
2022-10-25T01:55:03.320Z,1.10
2022-10-25T01:57:42.345Z,1.00
2022-10-25T02:00:09.606Z,0.95
2022-10-25T02:02:50.098Z,1.20
2022-10-25T02:05:29.538Z,0.88
2022-10-25T02:08:02.375Z,3.30
2022-10-25T02:10:35.377Z,3.42
2022-10-25T02:13:05.444Z,1.45
2022-10-25T02:15:39.318Z,2.97
2022-10-25T02:18:08.748Z,2.17
2022-10-25T02:20:36.565Z,1.02
2022-10-25T02:23:04.914Z,1.90
2022-10-25T02:25:36.523Z,3.00
2022-10-25T02:28:07.105Z,2.25
2022-10-25T02:30:35.495Z,2.80
2022-10-25T02:33:02.697Z,1.70
2022-10-25T02:35:29.904Z,4.45
2022-10-25T02:37:56.992Z,1.40
2022-10-25T02:40:24.557Z,1.50
2022-10-25T02:42:51.671Z,7.13
2022-10-25T02:45:18.794Z,2.42
2022-10-25T02:47:46.188Z,0.88
2022-10-25T02:50:13.945Z,2.15
2022-10-25T02:52:41.041Z,3.75
2022-10-25T02:55:08.420Z,1.65
2022-10-25T02:57:36.459Z,1.00
2022-10-25T03:00:04.851Z,3.38
2022-10-25T03:02:32.019Z,3.20
2022-10-25T03:04:59.181Z,4.30
2022-10-25T03:07:26.407Z,2.22
2022-10-25T03:09:53.554Z,3.05
2022-10-25T03:12:20.686Z,2.38
2022-10-25T03:14:47.770Z,2.17
2022-10-25T03:17:14.874Z,0.73
2022-10-25T03:19:41.974Z,3.33
2022-10-25T03:22:09.161Z,1.42
2022-10-25T03:24:36.251Z,1.08
2022-10-25T03:27:03.354Z,3.92
2022-10-25T03:29:30.471Z,2.05
2022-10-25T03:31:57.592Z,1.20
2022-10-25T03:34:24.686Z,0.95
2022-10-25T03:36:52.398Z,1.02
2022-10-25T03:39:19.522Z,1.63
2022-10-25T03:41:46.634Z,1.15
2022-10-25T03:44:13.740Z,1.58
2022-10-25T03:46:40.956Z,0.55
2022-10-25T03:49:08.154Z,0.68
2022-10-25T03:51:35.308Z,0.80
2022-10-25T03:54:02.428Z,1.48
2022-10-25T03:56:29.505Z,1.38
2022-10-25T03:58:56.635Z,1.98
2022-10-25T04:01:23.877Z,0.73
2022-10-25T04:03:51.111Z,4.15
2022-10-25T04:06:18.206Z,1.73
2022-10-25T04:08:45.314Z,3.08
2022-10-25T04:11:12.415Z,1.92
2022-10-25T04:13:39.482Z,2.72
2022-10-25T04:16:07.817Z,1.20
2022-10-25T04:18:34.905Z,2.83
2022-10-25T04:21:02.021Z,1.58
2022-10-25T04:23:29.170Z,2.38
2022-10-25T04:25:57.004Z,1.02
2022-10-25T04:28:24.472Z,1.27
2022-10-25T04:30:51.578Z,1.63
2022-10-25T04:33:18.773Z,1.10
2022-10-25T04:35:52.983Z,3.85
2022-10-25T04:38:20.123Z,2.03
2022-10-25T04:40:53.422Z,1.98
2022-10-25T04:43:20.717Z,1.92
2022-10-25T04:45:47.847Z,1.60
2022-10-25T04:48:14.937Z,1.00
2022-10-25T04:50:42.076Z,2.15
2022-10-25T04:53:09.214Z,1.33
2022-10-25T04:55:36.443Z,3.38
2022-10-25T04:58:03.771Z,2.53
2022-10-25T05:00:30.960Z,2.58
2022-10-25T05:02:58.153Z,1.02
2022-10-25T05:05:25.764Z,2.30
2022-10-25T05:07:52.854Z,3.15
2022-10-25T05:10:20.049Z,0.93
2022-10-25T05:12:47.463Z,1.23
2022-10-25T05:15:14.823Z,2.50
2022-10-25T05:17:41.936Z,1.00
2022-10-25T05:20:09.401Z,2.20
2022-10-25T05:22:36.484Z,1.40
2022-10-25T05:25:03.626Z,0.93
2022-10-25T05:27:30.770Z,1.17
2022-10-25T05:29:57.888Z,1.65
2022-10-25T05:32:25.006Z,1.45
2022-10-25T05:34:52.091Z,5.50
2022-10-25T05:37:19.232Z,1.15
2022-10-25T05:39:46.354Z,2.88
2022-10-25T05:42:13.447Z,2.50
2022-10-25T05:44:40.603Z,1.33
2022-10-25T05:47:07.775Z,1.58
2022-10-25T05:49:39.597Z,0.98
2022-10-25T05:52:07.234Z,3.85
2022-10-25T05:54:34.450Z,3.50
2022-10-25T05:57:01.611Z,1.30
2022-10-25T05:59:28.769Z,2.85
2022-10-25T06:01:56.031Z,1.25
2022-10-25T06:04:23.252Z,1.05
2022-10-25T06:06:52.160Z,1.70
2022-10-25T06:09:19.328Z,1.55
2022-10-25T06:11:46.550Z,3.80
2022-10-25T06:14:13.671Z,1.23
2022-10-25T06:16:40.820Z,2.40
2022-10-25T06:19:08.021Z,1.85
2022-10-25T06:21:35.142Z,4.00
2022-10-25T06:24:02.294Z,1.17
2022-10-25T06:26:29.987Z,1.77
2022-10-25T06:28:58.298Z,2.65
2022-10-25T06:31:25.488Z,2.45
2022-10-25T06:33:52.862Z,3.90
2022-10-25T06:36:21.473Z,2.15
2022-10-25T06:38:48.907Z,2.67
2022-10-25T06:41:17.559Z,2.55
2022-10-25T06:43:45.029Z,3.05
2022-10-25T06:46:15.393Z,2.05
2022-10-25T06:48:42.552Z,2.35
2022-10-25T06:51:09.878Z,2.00
2022-10-25T06:53:37.497Z,1.65
2022-10-25T06:56:06.021Z,2.83
2022-10-25T06:58:35.173Z,3.17
2022-10-25T07:01:13.075Z,2.58
2022-10-25T07:03:40.951Z,2.10
2022-10-25T07:06:12.079Z,2.28
2022-10-25T07:08:40.680Z,5.53
2022-10-25T07:11:08.285Z,4.20
2022-10-25T07:13:35.606Z,3.80
2022-10-25T07:16:06.487Z,4.80
2022-10-25T07:18:34.182Z,3.15
2022-10-25T07:21:02.222Z,2.40
2022-10-25T07:23:29.947Z,2.83
2022-10-25T07:25:57.278Z,2.55
2022-10-25T07:28:24.527Z,7.72
2022-10-25T07:30:51.732Z,6.47
2022-10-25T07:33:20.111Z,4.28
2022-10-25T07:35:59.006Z,2.53
2022-10-25T07:38:35.196Z,1.27
2022-10-25T07:41:02.498Z,1.90
2022-10-25T07:43:30.127Z,1.45
2022-10-25T07:45:57.355Z,3.13
2022-10-25T07:48:24.816Z,5.55
2022-10-25T07:50:52.281Z,2.88
2022-10-25T07:53:19.512Z,4.38
2022-10-25T07:55:53.159Z,4.18
2022-10-25T07:58:20.352Z,2.08
2022-10-25T08:00:47.668Z,1.25
2022-10-25T08:03:15.616Z,2.80
2022-10-25T08:05:46.591Z,3.40
2022-10-25T08:08:14.446Z,3.53
2022-10-25T08:10:45.078Z,3.38
2022-10-25T08:13:12.280Z,2.67
2022-10-25T08:15:40.946Z,2.15
2022-10-25T08:18:09.695Z,2.38
2022-10-25T08:21:00.684Z,3.22
2022-10-25T08:23:25.385Z,2.28
2022-10-25T08:25:52.663Z,1.65
2022-10-25T08:28:19.922Z,3.42
2022-10-25T08:30:47.219Z,1.52
2022-10-25T08:33:14.491Z,1.63
2022-10-25T08:35:41.612Z,4.47
2022-10-25T08:38:08.771Z,1.65
2022-10-25T08:40:39.013Z,4.95
2022-10-25T08:43:13.315Z,4.70
2022-10-25T08:45:43.850Z,1.08
2022-10-25T08:48:16.543Z,1.55
2022-10-25T08:50:46.176Z,1.45
2022-10-25T08:53:18.596Z,2.42
2022-10-25T08:56:11.669Z,2.92
2022-10-25T08:58:36.464Z,2.92
2022-10-25T09:01:09.441Z,1.55
2022-10-25T09:03:37.076Z,3.58
2022-10-25T09:06:07.313Z,2.40
2022-10-25T09:08:49.409Z,2.53
2022-10-25T09:11:35.126Z,0.73
2022-10-25T09:14:11.488Z,1.70
2022-10-25T09:16:41.347Z,3.50
2022-10-25T09:19:12.079Z,2.03
2022-10-25T09:21:39.229Z,3.35
2022-10-25T09:24:12.515Z,4.75
2022-10-25T09:26:41.441Z,1.55
2022-10-25T09:29:14.715Z,1.83
2022-10-25T09:31:43.700Z,4.78
2022-10-25T09:34:11.667Z,1.77
2022-10-25T09:36:41.523Z,1.65
2022-10-25T09:39:15.945Z,1.00
2022-10-25T09:41:46.086Z,3.55
2022-10-25T09:44:31.756Z,2.05
2022-10-25T09:47:03.213Z,2.63
2022-10-25T09:49:34.682Z,2.55
2022-10-25T09:52:22.061Z,2.13
2022-10-25T09:54:54.752Z,2.65
2022-10-25T09:57:21.875Z,2.92
2022-10-25T09:59:51.001Z,2.75
2022-10-25T10:02:24.603Z,2.40
2022-10-25T10:04:52.203Z,4.57
2022-10-25T10:07:19.363Z,1.80
2022-10-25T10:09:46.657Z,1.85
2022-10-25T10:12:34.033Z,2.00
2022-10-25T10:15:04.269Z,2.05
2022-10-25T10:17:31.668Z,2.90
2022-10-25T10:20:16.000Z,1.42
2022-10-25T10:22:47.375Z,2.55
2022-10-25T10:25:18.821Z,2.28
2022-10-25T10:27:47.230Z,3.38
2022-10-25T10:30:23.469Z,1.63
2022-10-25T10:32:57.056Z,3.95
2022-10-25T10:35:34.983Z,3.47
2022-10-25T10:38:14.372Z,3.67
2022-10-25T10:40:41.606Z,1.85
2022-10-25T10:43:29.103Z,2.25
2022-10-25T10:46:00.948Z,0.93
2022-10-25T10:48:32.508Z,2.72
2022-10-25T10:50:59.734Z,2.63
2022-10-25T10:53:32.287Z,1.85
2022-10-25T10:56:02.503Z,2.83
2022-10-25T10:58:32.027Z,4.40
2022-10-25T11:01:01.306Z,2.83
2022-10-25T11:03:59.133Z,1.45
2022-10-25T11:06:29.130Z,1.98
2022-10-25T11:09:20.503Z,4.22
2022-10-25T11:12:16.648Z,1.33
2022-10-25T11:14:43.761Z,2.40
2022-10-25T11:17:17.010Z,3.90
2022-10-25T11:19:44.218Z,1.42
2022-10-25T11:22:32.214Z,2.10
2022-10-25T11:25:20.797Z,1.58
2022-10-25T11:28:17.275Z,1.98
2022-10-25T11:30:58.200Z,1.42
2022-10-25T11:33:25.290Z,4.10
2022-10-25T11:36:09.740Z,1.38
2022-10-25T11:38:47.951Z,2.45
2022-10-25T11:45:02.095Z,3.75
2022-10-25T11:47:43.076Z,2.63
2022-10-25T11:50:16.683Z,4.68
2022-10-25T11:52:57.117Z,1.73
2022-10-25T11:55:24.716Z,0.95
2022-10-25T11:58:05.640Z,3.50
2022-10-25T12:00:44.279Z,1.70
2022-10-25T12:03:26.328Z,1.17
2022-10-25T12:05:59.692Z,1.33
2022-10-25T12:08:31.711Z,2.40
2022-10-25T12:11:03.751Z,3.88
2022-10-25T12:13:38.233Z,1.92
2022-10-25T12:16:10.235Z,2.17
2022-10-25T12:18:42.705Z,2.65
2022-10-25T12:21:11.412Z,2.95
2022-10-25T12:23:46.192Z,2.90
2022-10-25T12:28:45.096Z,2.90
2022-10-25T12:31:15.013Z,2.30
2022-10-25T12:33:43.854Z,1.58
2022-10-25T12:36:14.921Z,2.00
2022-10-25T12:38:42.791Z,5.53
2022-10-25T12:41:16.323Z,3.03
2022-10-25T12:44:18.846Z,1.85
2022-10-25T12:46:55.043Z,4.20
2022-10-25T12:49:23.429Z,3.22
2022-10-25T12:51:50.526Z,1.88
2022-10-25T12:54:32.971Z,2.47
2022-10-25T12:57:14.163Z,0.68
2022-10-25T12:59:57.310Z,3.08
2022-10-25T13:02:46.030Z,8.20
2022-10-25T13:05:28.808Z,2.10
2022-10-25T13:07:57.905Z,3.10
2022-10-25T13:13:06.155Z,1.38
2022-10-25T13:15:46.057Z,3.75
2022-10-25T13:18:31.988Z,2.85
2022-10-25T13:21:00.043Z,2.33
2022-10-25T13:23:50.169Z,0.82
2022-10-25T13:26:18.521Z,2.55
2022-10-25T13:28:45.658Z,3.95
2022-10-25T13:31:31.532Z,3.35
2022-10-25T13:34:14.286Z,4.15
2022-10-25T13:37:00.868Z,1.35
2022-10-25T13:39:34.026Z,2.78
2022-10-25T13:42:23.295Z,2.13
2022-10-25T13:44:56.650Z,3.75
2022-10-25T13:47:36.842Z,1.02
2022-10-25T13:50:13.305Z,3.42
2022-10-25T13:52:44.914Z,1.40
2022-10-25T13:55:15.971Z,2.35
2022-10-25T13:57:52.342Z,3.40
2022-10-25T14:00:22.338Z,2.25
2022-10-25T14:03:08.168Z,5.10
2022-10-25T14:05:54.538Z,2.38
2022-10-25T14:08:40.312Z,4.47
2022-10-25T14:11:16.722Z,3.17
2022-10-25T14:13:55.517Z,2.60
2022-10-25T14:16:27.905Z,1.88
2022-10-25T14:18:56.568Z,1.25
2022-10-25T14:21:25.742Z,1.58
2022-10-25T14:23:53.134Z,4.78
2022-10-25T14:26:21.356Z,1.50
2022-10-25T14:28:49.126Z,0.80
2022-10-25T14:31:18.887Z,3.10
2022-10-25T14:33:50.161Z,1.88
2022-10-25T14:36:23.203Z,1.83
2022-10-25T14:38:50.994Z,1.65
2022-10-25T14:41:23.962Z,1.35
2022-10-25T14:43:51.476Z,3.13
2022-10-25T14:46:20.062Z,2.45
2022-10-25T14:48:48.158Z,4.22
2022-10-25T14:51:41.653Z,3.72
2022-10-25T14:54:25.391Z,2.33
2022-10-25T14:56:58.391Z,2.13
2022-10-25T14:59:28.045Z,4.07
2022-10-25T15:02:29.770Z,4.07
2022-10-25T15:04:58.983Z,2.53
2022-10-25T15:11:10.273Z,2.58
2022-10-25T15:13:40.804Z,2.10
2022-10-25T15:16:37.749Z,2.20
2022-10-25T15:19:14.257Z,7.20
2022-10-25T15:21:43.940Z,3.03
2022-10-25T15:24:14.206Z,3.10
2022-10-25T15:26:52.065Z,2.05
2022-10-25T15:29:38.777Z,1.88
2022-10-25T15:32:05.972Z,3.15
2022-10-25T15:34:33.567Z,1.92
2022-10-25T15:37:00.823Z,2.22
2022-10-25T15:39:28.760Z,1.55
2022-10-25T15:41:56.033Z,2.38
2022-10-25T15:44:23.122Z,2.35
2022-10-25T15:46:56.103Z,2.50
2022-10-25T15:49:23.248Z,2.17
2022-10-25T15:51:50.509Z,1.70
2022-10-25T15:54:19.099Z,2.13
2022-10-25T15:56:46.303Z,2.80
2022-10-25T15:59:13.957Z,4.90
2022-10-25T16:01:42.412Z,4.72
2022-10-25T16:04:16.883Z,5.85
2022-10-25T16:06:44.611Z,5.03
2022-10-25T16:09:11.828Z,4.55
2022-10-25T16:11:43.613Z,4.97
2022-10-25T16:14:18.855Z,4.32
2022-10-25T16:16:46.029Z,2.50
2022-10-25T16:19:17.062Z,2.05
2022-10-25T16:21:44.554Z,5.57
2022-10-25T16:24:12.421Z,5.97
2022-10-25T16:26:42.687Z,3.58
2022-10-25T16:29:24.387Z,9.18
2022-10-25T16:31:52.326Z,4.57
2022-10-25T16:34:19.753Z,4.65
2022-10-25T16:36:47.662Z,3.05
2022-10-25T16:39:14.855Z,3.97
2022-10-25T16:41:43.286Z,3.70
2022-10-25T16:44:11.964Z,3.72
2022-10-25T16:46:39.692Z,3.85
2022-10-25T16:49:09.082Z,3.20
2022-10-25T16:57:32.005Z,6.55
2022-10-25T17:02:46.646Z,4.38
2022-10-25T17:05:47.389Z,4.35
2022-10-25T17:08:21.802Z,4.13
2022-10-25T17:10:51.627Z,5.30
2022-10-25T17:13:23.992Z,4.95
2022-10-25T17:16:02.527Z,4.38
2022-10-25T17:18:36.210Z,4.43
2022-10-25T17:21:12.360Z,4.13
2022-10-25T17:23:42.831Z,4.32
2022-10-25T17:26:13.953Z,4.28
2022-10-25T17:28:44.030Z,4.38
2022-10-25T17:31:12.454Z,9.98
2022-10-25T17:33:40.411Z,2.83
2022-10-25T17:36:16.471Z,3.50
2022-10-25T17:38:54.648Z,3.45
2022-10-25T17:41:22.081Z,4.30
2022-10-25T17:43:54.545Z,3.38
2022-10-25T17:46:25.804Z,5.22
2022-10-25T17:48:56.890Z,3.92
2022-10-25T17:51:24.264Z,4.70
2022-10-25T17:53:54.125Z,5.57
2022-10-25T17:56:22.201Z,4.25
2022-10-25T17:58:49.910Z,6.50
2022-10-25T18:01:20.844Z,5.03
2022-10-25T18:03:48.328Z,6.65
2022-10-25T18:06:16.403Z,8.13
2022-10-25T18:08:44.862Z,7.90
2022-10-25T18:11:12.792Z,16.88
2022-10-25T18:13:43.101Z,6.13
2022-10-25T18:16:10.741Z,6.65
2022-10-25T18:18:38.570Z,8.15
2022-10-25T18:21:06.636Z,6.50
2022-10-25T18:23:34.135Z,6.85
2022-10-25T18:26:01.631Z,6.30
2022-10-25T18:28:29.048Z,8.48
2022-10-25T18:31:14.669Z,11.55
2022-10-25T18:33:43.120Z,7.80
2022-10-25T18:36:15.859Z,7.32
2022-10-25T18:38:43.030Z,21.23
2022-10-25T18:41:11.525Z,21.13
2022-10-25T18:43:38.662Z,5.95
2022-10-25T18:46:05.903Z,7.05
2022-10-25T18:48:33.131Z,6.57
2022-10-25T18:51:04.400Z,9.15
2022-10-25T18:53:32.042Z,10.70
2022-10-25T18:55:59.222Z,7.32
2022-10-25T18:58:26.339Z,8.70
2022-10-25T19:00:53.547Z,9.65
2022-10-25T19:03:20.706Z,9.13
2022-10-25T19:05:52.347Z,12.13
2022-10-25T19:08:19.485Z,12.32
2022-10-25T19:10:47.522Z,11.43
2022-10-25T19:13:19.276Z,11.13
2022-10-25T19:15:46.942Z,11.40
2022-10-25T19:18:14.521Z,11.57
2022-10-25T19:20:45.555Z,13.00
2022-10-25T19:23:13.675Z,12.80
2022-10-25T19:25:40.889Z,10.60
2022-10-25T19:28:08.287Z,9.15
2022-10-25T19:30:39.274Z,13.05
2022-10-25T19:33:06.608Z,11.50
2022-10-25T19:35:34.245Z,11.60
2022-10-25T19:38:01.461Z,12.05
2022-10-25T19:40:28.599Z,11.93
2022-10-25T19:42:55.884Z,11.45
2022-10-25T19:45:23.663Z,9.15
2022-10-25T19:47:52.607Z,13.93
2022-10-25T19:50:22.241Z,11.73
2022-10-25T19:52:49.457Z,14.15
2022-10-25T19:55:16.894Z,10.75
2022-10-25T19:57:43.988Z,15.35
2022-10-25T20:00:13.530Z,10.68
2022-10-25T20:02:40.895Z,9.13
2022-10-25T20:05:08.381Z,8.48
2022-10-25T20:07:35.936Z,9.93
2022-10-25T20:10:03.052Z,9.40
2022-10-25T20:12:30.499Z,9.93
2022-10-25T20:14:58.421Z,12.82
2022-10-25T20:17:25.699Z,9.50
2022-10-25T20:19:52.839Z,8.32
2022-10-25T20:22:19.934Z,7.88
2022-10-25T20:24:47.038Z,9.95
2022-10-25T20:27:14.161Z,8.23
2022-10-25T20:29:41.570Z,9.32
2022-10-25T20:32:08.753Z,7.75
2022-10-25T20:34:37.418Z,10.32
2022-10-25T20:37:05.057Z,9.85
2022-10-25T20:39:32.213Z,9.65
2022-10-25T20:41:59.336Z,8.38
2022-10-25T20:44:26.422Z,8.55
2022-10-25T20:46:53.536Z,8.75
2022-10-25T20:49:20.614Z,9.90
2022-10-25T20:51:48.895Z,9.45
2022-10-25T20:54:16.079Z,9.63
2022-10-25T20:56:43.215Z,9.30
2022-10-25T20:59:10.351Z,10.10
2022-10-25T21:01:37.608Z,11.95
2022-10-25T21:04:04.950Z,9.55
2022-10-25T21:06:32.084Z,12.15
2022-10-25T21:08:59.156Z,10.75
2022-10-25T21:11:29.096Z,7.55
2022-10-25T21:13:56.254Z,8.85
2022-10-25T21:16:23.480Z,8.80
2022-10-25T21:18:50.562Z,9.73
2022-10-25T21:21:18.615Z,11.18
2022-10-25T21:23:48.931Z,9.70
2022-10-25T21:26:16.143Z,8.25
2022-10-25T21:28:43.313Z,8.45
2022-10-25T21:31:11.622Z,8.45
2022-10-25T21:33:39.285Z,7.85
2022-10-25T21:36:09.183Z,10.57
2022-10-25T21:38:36.326Z,10.98
2022-10-25T21:41:07.447Z,9.35
2022-10-25T21:43:34.637Z,7.85
2022-10-25T21:46:04.536Z,8.30
2022-10-25T21:48:31.644Z,10.10
2022-10-25T21:50:58.936Z,9.35
2022-10-25T21:53:26.395Z,7.40
2022-10-25T21:56:03.307Z,7.95
2022-10-25T21:58:30.396Z,8.35
2022-10-25T22:00:57.519Z,8.05
2022-10-25T22:03:26.963Z,7.13
2022-10-25T22:05:54.832Z,5.97
2022-10-25T22:08:21.940Z,9.57
2022-10-25T22:10:56.167Z,7.15
2022-10-25T22:13:23.347Z,7.68
2022-10-25T22:16:04.762Z,9.38
2022-10-25T22:18:32.142Z,8.55
2022-10-25T22:21:00.593Z,6.50
2022-10-25T22:23:28.417Z,7.50
2022-10-25T22:25:55.848Z,8.85
2022-10-25T22:28:22.983Z,10.38
2022-10-25T22:30:50.103Z,10.13
2022-10-25T22:33:17.201Z,9.80
2022-10-25T22:35:44.406Z,6.57
2022-10-25T22:38:11.550Z,10.00
2022-10-25T22:40:38.758Z,6.55
2022-10-25T22:43:05.922Z,7.03
2022-10-25T22:45:34.878Z,8.23
2022-10-25T22:48:02.058Z,7.05
2022-10-25T22:50:29.139Z,7.70
2022-10-25T22:52:56.242Z,7.55
2022-10-25T22:55:23.377Z,8.30
2022-10-25T22:57:50.692Z,6.85
2022-10-25T23:00:18.098Z,6.93
2022-10-25T23:02:45.350Z,4.50
2022-10-25T23:05:12.570Z,5.22
2022-10-25T23:07:39.658Z,5.85
2022-10-25T23:10:06.939Z,6.45
2022-10-25T23:12:34.040Z,7.50
2022-10-25T23:15:01.150Z,5.63
2022-10-25T23:17:28.358Z,4.35
2022-10-25T23:19:55.455Z,4.80
2022-10-25T23:22:22.562Z,5.07
2022-10-25T23:24:49.650Z,6.25
2022-10-25T23:27:16.799Z,6.10
2022-10-25T23:29:43.919Z,5.07
2022-10-25T23:32:11.051Z,10.10
2022-10-25T23:34:38.831Z,5.10
2022-10-25T23:37:06.034Z,3.10
2022-10-25T23:39:33.159Z,5.75
2022-10-25T23:42:00.271Z,4.78
2022-10-25T23:44:27.635Z,4.53
2022-10-25T23:46:54.785Z,1.90
2022-10-25T23:49:21.906Z,2.50
2022-10-25T23:51:49.128Z,5.00
2022-10-25T23:54:16.240Z,5.63
2022-10-25T23:56:43.345Z,4.05
2022-10-25T23:59:10.478Z,4.53
